ジュノー の空港の天気 - METARとTAF

ジュノー国際空港 ( PAJN / JNU ) - アメリカ アラスカ州ジュノー
飛行場実況気象(Metar)
観測時間05/28 14:53 AKDT (05/28 22:53 UTC)
風向・風速東 5m/s
視程10km以上
天気現象
少しの雲 雲底高度 2590m
全天の4割程度の雲 雲底高度 6400m
気温20.6℃
湿度24%
気圧1008.4hPa
METARPAJN 282253Z 09009KT 10SM FEW085 SCT210 21/M01 A2978 RMK AO2 SLP084 T02061006
過去の天気等 Google飛行場航空写真 Wunderground天気予報

過去48時間のMETAR

飛行場予報(TAF)
発表時間: 5/28 12:15 AKDT (5/28 20:15 UTC)
予報対象時間: 28日12時 AKDT ~ 29日10時 AKDT
風向・風速西南西 4m/s
視程10km以上
少しの雲 雲底高度 2130m
全天の4割程度の雲 雲底高度 6100m
28日16時 AKDT から
風向・風速不定 3m/s
視程10km以上
全天の4割程度の雲 雲底高度 6100m
28日21時 AKDT から
風向・風速不定 2m/s
視程10km以上
全天の4割程度の雲 雲底高度 6100m
PAJN 282015Z 2820/2918 24007KT P6SM FEW070 SCT200
FM290000 VRB06KT P6SM SCT200
FM290500 VRB03KT P6SM SCT200